sensor_id;sensor_type;location;lat;lon;timestamp;temperature;humidity
4647;DHT22;2336;47.822;7.564;2023-05-06T00:02:00;14.80;99.90
4647;DHT22;2336;47.822;7.564;2023-05-06T00:04:28;14.80;99.90
4647;DHT22;2336;47.822;7.564;2023-05-06T00:06:55;14.80;99.90
4647;DHT22;2336;47.822;7.564;2023-05-06T00:09:22;14.70;99.90
4647;DHT22;2336;47.822;7.564;2023-05-06T00:11:49;14.70;99.90
4647;DHT22;2336;47.822;7.564;2023-05-06T00:14:16;14.70;99.90
4647;DHT22;2336;47.822;7.564;2023-05-06T00:16:43;14.70;99.90
4647;DHT22;2336;47.822;7.564;2023-05-06T00:19:11;14.70;99.90
4647;DHT22;2336;47.822;7.564;2023-05-06T00:21:38;14.70;99.90
4647;DHT22;2336;47.822;7.564;2023-05-06T00:24:05;14.70;99.90
4647;DHT22;2336;47.822;7.564;2023-05-06T00:26:32;14.70;99.90
4647;DHT22;2336;47.822;7.564;2023-05-06T00:28:58;14.70;99.90
4647;DHT22;2336;47.822;7.564;2023-05-06T00:31:25;14.80;99.90
4647;DHT22;2336;47.822;7.564;2023-05-06T00:33:52;14.80;99.90
4647;DHT22;2336;47.822;7.564;2023-05-06T00:36:20;14.90;99.90
4647;DHT22;2336;47.822;7.564;2023-05-06T00:38:46;15.00;99.90
4647;DHT22;2336;47.822;7.564;2023-05-06T00:41:13;15.00;99.90
4647;DHT22;2336;47.822;7.564;2023-05-06T00:43:40;15.00;99.90
4647;DHT22;2336;47.822;7.564;2023-05-06T00:46:08;15.10;99.90
4647;DHT22;2336;47.822;7.564;2023-05-06T00:48:36;15.10;99.90
4647;DHT22;2336;47.822;7.564;2023-05-06T00:51:03;15.10;99.90
4647;DHT22;2336;47.822;7.564;2023-05-06T00:53:31;15.10;99.90
4647;DHT22;2336;47.822;7.564;2023-05-06T00:55:58;15.10;99.90
4647;DHT22;2336;47.822;7.564;2023-05-06T00:58:25;15.20;99.90
4647;DHT22;2336;47.822;7.564;2023-05-06T01:00:52;15.10;99.90
4647;DHT22;2336;47.822;7.564;2023-05-06T01:03:19;15.10;99.90
4647;DHT22;2336;47.822;7.564;2023-05-06T01:05:51;15.10;99.90
4647;DHT22;2336;47.822;7.564;2023-05-06T01:08:24;15.10;99.90
4647;DHT22;2336;47.822;7.564;2023-05-06T01:10:54;15.10;99.90
4647;DHT22;2336;47.822;7.564;2023-05-06T01:13:30;15.10;99.90
4647;DHT22;2336;47.822;7.564;2023-05-06T01:16:00;15.10;99.90
4647;DHT22;2336;47.822;7.564;2023-05-06T01:18:31;15.10;99.90
4647;DHT22;2336;47.822;7.564;2023-05-06T01:20:59;15.10;99.90
4647;DHT22;2336;47.822;7.564;2023-05-06T01:23:29;15.10;99.90
4647;DHT22;2336;47.822;7.564;2023-05-06T01:26:15;15.00;99.90
4647;DHT22;2336;47.822;7.564;2023-05-06T01:28:41;15.00;99.90
4647;DHT22;2336;47.822;7.564;2023-05-06T01:31:11;15.00;99.90
4647;DHT22;2336;47.822;7.564;2023-05-06T01:33:42;15.00;99.90
4647;DHT22;2336;47.822;7.564;2023-05-06T01:36:15;15.00;99.90
4647;DHT22;2336;47.822;7.564;2023-05-06T01:38:54;15.00;99.90
4647;DHT22;2336;47.822;7.564;2023-05-06T01:41:24;15.00;99.90
4647;DHT22;2336;47.822;7.564;2023-05-06T01:43:52;14.90;99.90
4647;DHT22;2336;47.822;7.564;2023-05-06T01:46:20;14.80;99.90
4647;DHT22;2336;47.822;7.564;2023-05-06T01:48:49;14.70;99.90
4647;DHT22;2336;47.822;7.564;2023-05-06T01:51:18;14.60;99.90
4647;DHT22;2336;47.822;7.564;2023-05-06T01:53:47;14.50;99.90
4647;DHT22;2336;47.822;7.564;2023-05-06T01:56:13;14.40;99.90
4647;DHT22;2336;47.822;7.564;2023-05-06T01:58:40;14.40;99.90
4647;DHT22;2336;47.822;7.564;2023-05-06T02:01:07;14.40;99.90
4647;DHT22;2336;47.822;7.564;2023-05-06T02:03:34;14.40;99.90
4647;DHT22;2336;47.822;7.564;2023-05-06T02:06:01;14.40;99.90
4647;DHT22;2336;47.822;7.564;2023-05-06T02:08:29;14.40;99.90
4647;DHT22;2336;47.822;7.564;2023-05-06T02:10:57;14.50;99.90
4647;DHT22;2336;47.822;7.564;2023-05-06T02:13:23;14.50;99.90
4647;DHT22;2336;47.822;7.564;2023-05-06T02:15:51;14.40;99.90
4647;DHT22;2336;47.822;7.564;2023-05-06T02:18:19;14.40;99.90
4647;DHT22;2336;47.822;7.564;2023-05-06T02:20:45;14.40;99.90
4647;DHT22;2336;47.822;7.564;2023-05-06T02:23:12;14.40;99.90
4647;DHT22;2336;47.822;7.564;2023-05-06T02:25:39;14.40;99.90
4647;DHT22;2336;47.822;7.564;2023-05-06T02:28:07;14.40;99.90
4647;DHT22;2336;47.822;7.564;2023-05-06T02:30:33;14.40;99.90
4647;DHT22;2336;47.822;7.564;2023-05-06T02:33:01;14.40;99.90
4647;DHT22;2336;47.822;7.564;2023-05-06T02:35:27;14.50;99.90
4647;DHT22;2336;47.822;7.564;2023-05-06T02:37:54;14.50;99.90
4647;DHT22;2336;47.822;7.564;2023-05-06T02:40:21;14.50;99.90
4647;DHT22;2336;47.822;7.564;2023-05-06T02:42:48;14.50;99.90
4647;DHT22;2336;47.822;7.564;2023-05-06T02:45:16;14.60;99.90
4647;DHT22;2336;47.822;7.564;2023-05-06T02:47:43;14.60;99.90
4647;DHT22;2336;47.822;7.564;2023-05-06T02:50:10;14.60;99.90
4647;DHT22;2336;47.822;7.564;2023-05-06T02:52:36;14.60;99.90
4647;DHT22;2336;47.822;7.564;2023-05-06T02:55:04;14.70;99.90
4647;DHT22;2336;47.822;7.564;2023-05-06T02:57:31;14.60;99.90
4647;DHT22;2336;47.822;7.564;2023-05-06T02:59:58;14.60;99.90
4647;DHT22;2336;47.822;7.564;2023-05-06T03:02:26;14.60;99.90
4647;DHT22;2336;47.822;7.564;2023-05-06T03:04:52;14.70;99.90
4647;DHT22;2336;47.822;7.564;2023-05-06T03:07:19;14.60;99.90
4647;DHT22;2336;47.822;7.564;2023-05-06T03:09:46;14.60;99.90
4647;DHT22;2336;47.822;7.564;2023-05-06T03:12:12;14.60;99.90
4647;DHT22;2336;47.822;7.564;2023-05-06T03:14:39;14.60;99.90
4647;DHT22;2336;47.822;7.564;2023-05-06T03:17:06;14.70;99.90
4647;DHT22;2336;47.822;7.564;2023-05-06T03:19:34;14.70;99.90
4647;DHT22;2336;47.822;7.564;2023-05-06T03:22:00;14.70;99.90
4647;DHT22;2336;47.822;7.564;2023-05-06T03:24:27;14.70;99.90
4647;DHT22;2336;47.822;7.564;2023-05-06T03:26:54;14.80;99.90
4647;DHT22;2336;47.822;7.564;2023-05-06T03:29:23;14.70;99.90
4647;DHT22;2336;47.822;7.564;2023-05-06T03:31:49;14.80;99.90
4647;DHT22;2336;47.822;7.564;2023-05-06T03:34:16;14.80;99.90
4647;DHT22;2336;47.822;7.564;2023-05-06T03:36:44;14.80;99.90
4647;DHT22;2336;47.822;7.564;2023-05-06T03:39:11;14.80;99.90
4647;DHT22;2336;47.822;7.564;2023-05-06T03:41:37;14.70;99.90
4647;DHT22;2336;47.822;7.564;2023-05-06T03:44:04;14.80;99.90
4647;DHT22;2336;47.822;7.564;2023-05-06T03:46:31;14.80;99.90
4647;DHT22;2336;47.822;7.564;2023-05-06T03:48:58;14.70;99.90
4647;DHT22;2336;47.822;7.564;2023-05-06T03:51:27;14.80;99.90
4647;DHT22;2336;47.822;7.564;2023-05-06T03:53:55;14.80;99.90
4647;DHT22;2336;47.822;7.564;2023-05-06T03:56:22;14.80;99.90
4647;DHT22;2336;47.822;7.564;2023-05-06T03:58:49;14.80;99.90
4647;DHT22;2336;47.822;7.564;2023-05-06T04:01:15;14.80;99.90
4647;DHT22;2336;47.822;7.564;2023-05-06T04:03:42;14.80;99.90
4647;DHT22;2336;47.822;7.564;2023-05-06T04:06:09;14.70;99.90
4647;DHT22;2336;47.822;7.564;2023-05-06T04:08:36;14.70;99.90
4647;DHT22;2336;47.822;7.564;2023-05-06T04:11:05;14.70;99.90
4647;DHT22;2336;47.822;7.564;2023-05-06T04:13:32;14.70;99.90
4647;DHT22;2336;47.822;7.564;2023-05-06T04:15:58;14.70;99.90
4647;DHT22;2336;47.822;7.564;2023-05-06T04:18:25;14.70;99.90
4647;DHT22;2336;47.822;7.564;2023-05-06T04:20:52;14.70;99.90
4647;DHT22;2336;47.822;7.564;2023-05-06T04:23:19;14.70;99.90
4647;DHT22;2336;47.822;7.564;2023-05-06T04:25:46;14.70;99.90
4647;DHT22;2336;47.822;7.564;2023-05-06T04:28:15;14.70;99.90
4647;DHT22;2336;47.822;7.564;2023-05-06T04:30:42;14.70;99.90
4647;DHT22;2336;47.822;7.564;2023-05-06T04:33:09;14.70;99.90
4647;DHT22;2336;47.822;7.564;2023-05-06T04:35:35;14.70;99.90
4647;DHT22;2336;47.822;7.564;2023-05-06T04:38:02;14.70;99.90
4647;DHT22;2336;47.822;7.564;2023-05-06T04:40:29;14.80;99.90
4647;DHT22;2336;47.822;7.564;2023-05-06T04:42:56;14.80;99.90
4647;DHT22;2336;47.822;7.564;2023-05-06T04:45:24;14.80;99.90
4647;DHT22;2336;47.822;7.564;2023-05-06T04:47:51;14.80;99.90
4647;DHT22;2336;47.822;7.564;2023-05-06T04:50:18;14.80;99.90
4647;DHT22;2336;47.822;7.564;2023-05-06T04:52:48;14.80;99.90
4647;DHT22;2336;47.822;7.564;2023-05-06T04:55:14;14.80;99.90
4647;DHT22;2336;47.822;7.564;2023-05-06T04:57:41;14.80;99.90
4647;DHT22;2336;47.822;7.564;2023-05-06T05:00:08;14.90;99.90
4647;DHT22;2336;47.822;7.564;2023-05-06T05:02:37;14.90;99.90
4647;DHT22;2336;47.822;7.564;2023-05-06T05:05:04;14.90;99.90
4647;DHT22;2336;47.822;7.564;2023-05-06T05:07:31;15.00;99.90
4647;DHT22;2336;47.822;7.564;2023-05-06T05:09:58;15.00;99.90
4647;DHT22;2336;47.822;7.564;2023-05-06T05:12:24;15.00;99.90
4647;DHT22;2336;47.822;7.564;2023-05-06T05:14:51;15.00;99.90
4647;DHT22;2336;47.822;7.564;2023-05-06T05:17:18;14.90;99.90
4647;DHT22;2336;47.822;7.564;2023-05-06T05:19:46;14.90;99.90
4647;DHT22;2336;47.822;7.564;2023-05-06T05:22:12;15.00;99.90
4647;DHT22;2336;47.822;7.564;2023-05-06T05:24:39;15.00;99.90
4647;DHT22;2336;47.822;7.564;2023-05-06T05:27:06;15.00;99.90
4647;DHT22;2336;47.822;7.564;2023-05-06T05:29:32;15.10;99.90
4647;DHT22;2336;47.822;7.564;2023-05-06T05:31:59;15.10;99.90
4647;DHT22;2336;47.822;7.564;2023-05-06T05:34:26;15.00;99.90
4647;DHT22;2336;47.822;7.564;2023-05-06T05:36:54;15.00;99.90
4647;DHT22;2336;47.822;7.564;2023-05-06T05:39:21;15.00;99.90
4647;DHT22;2336;47.822;7.564;2023-05-06T05:41:47;14.90;99.90
4647;DHT22;2336;47.822;7.564;2023-05-06T05:44:14;14.80;99.90
4647;DHT22;2336;47.822;7.564;2023-05-06T05:46:41;14.80;99.90
4647;DHT22;2336;47.822;7.564;2023-05-06T05:49:08;14.70;99.90
4647;DHT22;2336;47.822;7.564;2023-05-06T05:51:35;14.70;99.90
4647;DHT22;2336;47.822;7.564;2023-05-06T05:54:03;14.80;99.90
4647;DHT22;2336;47.822;7.564;2023-05-06T05:56:29;14.70;99.90
4647;DHT22;2336;47.822;7.564;2023-05-06T05:58:56;14.70;99.90
4647;DHT22;2336;47.822;7.564;2023-05-06T06:01:23;14.70;99.90
4647;DHT22;2336;47.822;7.564;2023-05-06T06:03:49;14.70;99.90
4647;DHT22;2336;47.822;7.564;2023-05-06T06:06:16;14.70;99.90
4647;DHT22;2336;47.822;7.564;2023-05-06T06:08:43;14.60;99.90
4647;DHT22;2336;47.822;7.564;2023-05-06T06:11:11;14.70;99.90
4647;DHT22;2336;47.822;7.564;2023-05-06T06:13:38;14.70;99.90
4647;DHT22;2336;47.822;7.564;2023-05-06T06:16:05;14.60;99.90
4647;DHT22;2336;47.822;7.564;2023-05-06T06:18:32;14.70;99.90
4647;DHT22;2336;47.822;7.564;2023-05-06T06:20:59;14.60;99.90
4647;DHT22;2336;47.822;7.564;2023-05-06T06:23:25;14.60;99.90
4647;DHT22;2336;47.822;7.564;2023-05-06T06:25:52;14.60;99.90
4647;DHT22;2336;47.822;7.564;2023-05-06T06:28:20;14.70;99.90
4647;DHT22;2336;47.822;7.564;2023-05-06T06:30:47;14.80;99.90
4647;DHT22;2336;47.822;7.564;2023-05-06T06:33:13;14.80;99.90
4647;DHT22;2336;47.822;7.564;2023-05-06T06:35:40;14.90;99.90
4647;DHT22;2336;47.822;7.564;2023-05-06T06:38:07;14.80;99.90
4647;DHT22;2336;47.822;7.564;2023-05-06T06:40:33;14.90;99.90
4647;DHT22;2336;47.822;7.564;2023-05-06T06:43:00;14.90;99.90
4647;DHT22;2336;47.822;7.564;2023-05-06T06:45:28;14.90;99.90
4647;DHT22;2336;47.822;7.564;2023-05-06T06:47:55;14.90;99.90
4647;DHT22;2336;47.822;7.564;2023-05-06T06:50:22;14.90;99.90
4647;DHT22;2336;47.822;7.564;2023-05-06T06:52:48;14.90;99.90
4647;DHT22;2336;47.822;7.564;2023-05-06T06:55:15;14.90;99.90
4647;DHT22;2336;47.822;7.564;2023-05-06T06:57:42;15.00;99.90
4647;DHT22;2336;47.822;7.564;2023-05-06T07:00:10;14.90;99.90
4647;DHT22;2336;47.822;7.564;2023-05-06T07:02:38;14.90;99.90
4647;DHT22;2336;47.822;7.564;2023-05-06T07:05:05;14.90;99.90
4647;DHT22;2336;47.822;7.564;2023-05-06T07:07:32;14.80;99.90
4647;DHT22;2336;47.822;7.564;2023-05-06T07:09:59;14.70;99.90
4647;DHT22;2336;47.822;7.564;2023-05-06T07:12:25;14.60;99.90
4647;DHT22;2336;47.822;7.564;2023-05-06T07:14:52;14.50;99.90
4647;DHT22;2336;47.822;7.564;2023-05-06T07:17:19;14.60;99.90
4647;DHT22;2336;47.822;7.564;2023-05-06T07:19:47;14.50;99.90
4647;DHT22;2336;47.822;7.564;2023-05-06T07:22:14;14.60;99.90
4647;DHT22;2336;47.822;7.564;2023-05-06T07:24:40;14.60;99.90
4647;DHT22;2336;47.822;7.564;2023-05-06T07:27:07;14.60;99.90
4647;DHT22;2336;47.822;7.564;2023-05-06T07:29:34;14.70;99.90
4647;DHT22;2336;47.822;7.564;2023-05-06T07:32:02;14.70;99.90
4647;DHT22;2336;47.822;7.564;2023-05-06T07:34:28;14.70;99.90
4647;DHT22;2336;47.822;7.564;2023-05-06T07:36:57;14.70;99.90
4647;DHT22;2336;47.822;7.564;2023-05-06T07:39:24;14.60;99.90
4647;DHT22;2336;47.822;7.564;2023-05-06T07:41:50;14.70;99.90
4647;DHT22;2336;47.822;7.564;2023-05-06T07:44:17;14.70;99.90
4647;DHT22;2336;47.822;7.564;2023-05-06T07:46:44;14.70;99.90
4647;DHT22;2336;47.822;7.564;2023-05-06T07:49:10;14.80;99.90
4647;DHT22;2336;47.822;7.564;2023-05-06T07:51:37;14.90;99.90
4647;DHT22;2336;47.822;7.564;2023-05-06T07:54:05;15.00;99.90
4647;DHT22;2336;47.822;7.564;2023-05-06T07:56:32;15.00;99.90
4647;DHT22;2336;47.822;7.564;2023-05-06T07:58:59;15.10;99.90
4647;DHT22;2336;47.822;7.564;2023-05-06T08:01:26;15.30;99.90
4647;DHT22;2336;47.822;7.564;2023-05-06T08:03:54;15.40;99.90
4647;DHT22;2336;47.822;7.564;2023-05-06T08:06:20;15.50;99.90
4647;DHT22;2336;47.822;7.564;2023-05-06T08:08:47;15.60;99.90
4647;DHT22;2336;47.822;7.564;2023-05-06T08:11:15;15.70;99.90
4647;DHT22;2336;47.822;7.564;2023-05-06T08:13:43;15.80;99.90
4647;DHT22;2336;47.822;7.564;2023-05-06T08:16:10;15.90;99.90
4647;DHT22;2336;47.822;7.564;2023-05-06T08:18:37;16.10;99.90
4647;DHT22;2336;47.822;7.564;2023-05-06T08:21:04;16.30;99.90
4647;DHT22;2336;47.822;7.564;2023-05-06T08:23:31;16.50;99.90
4647;DHT22;2336;47.822;7.564;2023-05-06T08:25:57;16.60;99.90
4647;DHT22;2336;47.822;7.564;2023-05-06T08:28:25;16.80;99.90
4647;DHT22;2336;47.822;7.564;2023-05-06T08:30:53;17.00;99.90
4647;DHT22;2336;47.822;7.564;2023-05-06T08:33:20;17.20;99.90
4647;DHT22;2336;47.822;7.564;2023-05-06T08:35:47;17.30;99.90
4647;DHT22;2336;47.822;7.564;2023-05-06T08:38:13;17.30;99.90
4647;DHT22;2336;47.822;7.564;2023-05-06T08:40:42;17.30;99.90
4647;DHT22;2336;47.822;7.564;2023-05-06T08:43:12;16.90;99.90
4647;DHT22;2336;47.822;7.564;2023-05-06T08:45:41;16.80;99.90
4647;DHT22;2336;47.822;7.564;2023-05-06T08:48:08;16.50;99.90
4647;DHT22;2336;47.822;7.564;2023-05-06T08:50:39;16.40;99.90
4647;DHT22;2336;47.822;7.564;2023-05-06T08:53:07;16.50;99.90
4647;DHT22;2336;47.822;7.564;2023-05-06T08:55:34;16.60;99.90
4647;DHT22;2336;47.822;7.564;2023-05-06T08:58:02;16.60;99.90
4647;DHT22;2336;47.822;7.564;2023-05-06T09:00:31;16.70;99.90
4647;DHT22;2336;47.822;7.564;2023-05-06T09:03:00;16.90;99.90
4647;DHT22;2336;47.822;7.564;2023-05-06T09:05:27;17.00;99.90
4647;DHT22;2336;47.822;7.564;2023-05-06T09:07:54;17.20;99.90
4647;DHT22;2336;47.822;7.564;2023-05-06T09:10:20;17.40;99.90
4647;DHT22;2336;47.822;7.564;2023-05-06T09:12:47;17.70;99.90
4647;DHT22;2336;47.822;7.564;2023-05-06T09:15:14;17.80;99.90
4647;DHT22;2336;47.822;7.564;2023-05-06T09:17:40;17.90;99.90
4647;DHT22;2336;47.822;7.564;2023-05-06T09:20:11;18.00;99.90
4647;DHT22;2336;47.822;7.564;2023-05-06T09:22:38;18.00;99.90
4647;DHT22;2336;47.822;7.564;2023-05-06T09:25:06;18.10;99.90
4647;DHT22;2336;47.822;7.564;2023-05-06T09:27:34;18.20;99.90
4647;DHT22;2336;47.822;7.564;2023-05-06T09:30:02;18.30;99.90
4647;DHT22;2336;47.822;7.564;2023-05-06T09:32:30;18.50;99.90
4647;DHT22;2336;47.822;7.564;2023-05-06T09:34:57;18.70;99.90
4647;DHT22;2336;47.822;7.564;2023-05-06T09:37:25;18.90;99.90
4647;DHT22;2336;47.822;7.564;2023-05-06T09:39:53;19.10;99.90
4647;DHT22;2336;47.822;7.564;2023-05-06T09:42:21;19.30;99.90
4647;DHT22;2336;47.822;7.564;2023-05-06T09:44:51;19.50;99.90
4647;DHT22;2336;47.822;7.564;2023-05-06T09:47:18;19.70;99.90
4647;DHT22;2336;47.822;7.564;2023-05-06T09:49:46;19.90;99.90
4647;DHT22;2336;47.822;7.564;2023-05-06T09:52:13;20.00;99.90
4647;DHT22;2336;47.822;7.564;2023-05-06T09:54:41;20.20;99.90
4647;DHT22;2336;47.822;7.564;2023-05-06T09:57:08;20.10;99.90
4647;DHT22;2336;47.822;7.564;2023-05-06T09:59:38;20.20;99.90
4647;DHT22;2336;47.822;7.564;2023-05-06T10:02:06;20.40;99.90
4647;DHT22;2336;47.822;7.564;2023-05-06T10:04:34;20.60;99.90
4647;DHT22;2336;47.822;7.564;2023-05-06T10:07:02;20.80;99.90
4647;DHT22;2336;47.822;7.564;2023-05-06T10:09:31;21.00;99.90
4647;DHT22;2336;47.822;7.564;2023-05-06T10:12:00;21.10;99.90
4647;DHT22;2336;47.822;7.564;2023-05-06T10:14:28;21.40;99.90
4647;DHT22;2336;47.822;7.564;2023-05-06T10:16:54;21.40;99.90
4647;DHT22;2336;47.822;7.564;2023-05-06T10:19:23;21.10;99.90
4647;DHT22;2336;47.822;7.564;2023-05-06T10:21:53;21.40;99.90
4647;DHT22;2336;47.822;7.564;2023-05-06T10:24:28;20.90;99.90
4647;DHT22;2336;47.822;7.564;2023-05-06T10:27:00;20.60;99.90
4647;DHT22;2336;47.822;7.564;2023-05-06T10:29:29;20.70;99.90
4647;DHT22;2336;47.822;7.564;2023-05-06T10:31:58;21.00;99.90
4647;DHT22;2336;47.822;7.564;2023-05-06T10:34:27;21.10;99.90
4647;DHT22;2336;47.822;7.564;2023-05-06T10:36:59;21.00;99.90
4647;DHT22;2336;47.822;7.564;2023-05-06T10:39:26;21.10;99.90
4647;DHT22;2336;47.822;7.564;2023-05-06T10:41:53;21.20;99.90
4647;DHT22;2336;47.822;7.564;2023-05-06T10:47:21;21.10;99.90
4647;DHT22;2336;47.822;7.564;2023-05-06T10:50:17;21.40;99.90
4647;DHT22;2336;47.822;7.564;2023-05-06T10:52:45;21.80;99.90
4647;DHT22;2336;47.822;7.564;2023-05-06T10:55:25;21.90;99.90
4647;DHT22;2336;47.822;7.564;2023-05-06T10:57:59;21.80;99.90
4647;DHT22;2336;47.822;7.564;2023-05-06T11:00:25;21.40;99.90
4647;DHT22;2336;47.822;7.564;2023-05-06T11:03:00;21.30;99.90
4647;DHT22;2336;47.822;7.564;2023-05-06T11:05:27;20.90;99.90
4647;DHT22;2336;47.822;7.564;2023-05-06T11:08:06;20.90;99.90
4647;DHT22;2336;47.822;7.564;2023-05-06T11:10:34;21.00;99.90
4647;DHT22;2336;47.822;7.564;2023-05-06T11:13:21;21.10;99.90
4647;DHT22;2336;47.822;7.564;2023-05-06T11:15:48;21.10;99.90
4647;DHT22;2336;47.822;7.564;2023-05-06T11:18:42;21.20;99.90
4647;DHT22;2336;47.822;7.564;2023-05-06T11:21:37;21.40;99.90
4647;DHT22;2336;47.822;7.564;2023-05-06T11:24:10;21.60;99.90
4647;DHT22;2336;47.822;7.564;2023-05-06T11:26:42;21.80;99.90
4647;DHT22;2336;47.822;7.564;2023-05-06T11:29:09;21.80;99.90
4647;DHT22;2336;47.822;7.564;2023-05-06T11:31:41;21.70;99.90
4647;DHT22;2336;47.822;7.564;2023-05-06T11:34:13;21.80;99.90
4647;DHT22;2336;47.822;7.564;2023-05-06T11:36:58;22.10;99.90
4647;DHT22;2336;47.822;7.564;2023-05-06T11:39:27;22.30;99.90
4647;DHT22;2336;47.822;7.564;2023-05-06T11:41:58;22.40;99.90
4647;DHT22;2336;47.822;7.564;2023-05-06T11:44:28;22.50;99.90
4647;DHT22;2336;47.822;7.564;2023-05-06T11:46:56;22.50;99.90
4647;DHT22;2336;47.822;7.564;2023-05-06T11:49:24;22.70;99.90
4647;DHT22;2336;47.822;7.564;2023-05-06T11:51:52;22.50;99.90
4647;DHT22;2336;47.822;7.564;2023-05-06T11:54:19;22.60;99.90
4647;DHT22;2336;47.822;7.564;2023-05-06T11:56:49;22.90;99.90
4647;DHT22;2336;47.822;7.564;2023-05-06T11:59:17;22.50;99.90
4647;DHT22;2336;47.822;7.564;2023-05-06T12:01:44;22.80;99.90
4647;DHT22;2336;47.822;7.564;2023-05-06T12:04:11;23.00;99.90
4647;DHT22;2336;47.822;7.564;2023-05-06T12:06:40;23.30;99.90
4647;DHT22;2336;47.822;7.564;2023-05-06T12:09:09;23.30;99.90
4647;DHT22;2336;47.822;7.564;2023-05-06T12:11:38;23.20;99.90
4647;DHT22;2336;47.822;7.564;2023-05-06T12:14:06;23.30;99.90
4647;DHT22;2336;47.822;7.564;2023-05-06T12:16:34;23.40;99.90
4647;DHT22;2336;47.822;7.564;2023-05-06T12:19:01;23.30;99.90
4647;DHT22;2336;47.822;7.564;2023-05-06T12:21:28;23.20;99.90
4647;DHT22;2336;47.822;7.564;2023-05-06T12:23:58;23.10;99.90
4647;DHT22;2336;47.822;7.564;2023-05-06T12:26:25;23.20;99.90
4647;DHT22;2336;47.822;7.564;2023-05-06T12:29:06;23.50;99.90
4647;DHT22;2336;47.822;7.564;2023-05-06T12:31:33;23.00;99.90
4647;DHT22;2336;47.822;7.564;2023-05-06T12:34:00;23.20;99.90
4647;DHT22;2336;47.822;7.564;2023-05-06T12:36:27;23.40;99.90
4647;DHT22;2336;47.822;7.564;2023-05-06T12:38:56;23.40;99.90
4647;DHT22;2336;47.822;7.564;2023-05-06T12:41:33;23.40;99.90
4647;DHT22;2336;47.822;7.564;2023-05-06T12:44:00;23.40;99.90
4647;DHT22;2336;47.822;7.564;2023-05-06T12:46:27;23.20;99.90
4647;DHT22;2336;47.822;7.564;2023-05-06T12:49:01;23.30;99.90
4647;DHT22;2336;47.822;7.564;2023-05-06T12:51:29;23.40;99.90
4647;DHT22;2336;47.822;7.564;2023-05-06T12:53:58;23.40;99.90
4647;DHT22;2336;47.822;7.564;2023-05-06T12:56:24;23.20;99.90
4647;DHT22;2336;47.822;7.564;2023-05-06T12:58:58;23.20;99.90
4647;DHT22;2336;47.822;7.564;2023-05-06T13:01:25;23.10;99.90
4647;DHT22;2336;47.822;7.564;2023-05-06T13:03:54;23.20;99.90
4647;DHT22;2336;47.822;7.564;2023-05-06T13:06:21;23.40;99.90
4647;DHT22;2336;47.822;7.564;2023-05-06T13:08:48;23.40;99.90
4647;DHT22;2336;47.822;7.564;2023-05-06T13:11:16;23.60;99.90
4647;DHT22;2336;47.822;7.564;2023-05-06T13:13:43;23.60;99.90
4647;DHT22;2336;47.822;7.564;2023-05-06T13:16:09;23.60;99.90
4647;DHT22;2336;47.822;7.564;2023-05-06T13:18:36;23.70;99.90
4647;DHT22;2336;47.822;7.564;2023-05-06T13:21:03;23.80;99.90
4647;DHT22;2336;47.822;7.564;2023-05-06T13:23:30;23.40;99.90
4647;DHT22;2336;47.822;7.564;2023-05-06T13:25:59;23.30;99.90
4647;DHT22;2336;47.822;7.564;2023-05-06T13:28:31;23.20;99.90
4647;DHT22;2336;47.822;7.564;2023-05-06T13:30:57;23.20;99.90
4647;DHT22;2336;47.822;7.564;2023-05-06T13:33:24;23.20;99.90
4647;DHT22;2336;47.822;7.564;2023-05-06T13:35:51;23.00;99.90
4647;DHT22;2336;47.822;7.564;2023-05-06T13:38:17;23.00;99.90
4647;DHT22;2336;47.822;7.564;2023-05-06T13:40:45;23.20;99.90
4647;DHT22;2336;47.822;7.564;2023-05-06T13:43:12;23.30;99.90
4647;DHT22;2336;47.822;7.564;2023-05-06T13:45:41;23.50;99.90
4647;DHT22;2336;47.822;7.564;2023-05-06T13:48:09;23.60;99.90
4647;DHT22;2336;47.822;7.564;2023-05-06T13:50:35;23.60;99.90
4647;DHT22;2336;47.822;7.564;2023-05-06T13:53:02;23.50;99.90
4647;DHT22;2336;47.822;7.564;2023-05-06T13:55:29;23.50;99.90
4647;DHT22;2336;47.822;7.564;2023-05-06T13:57:56;23.20;99.90
4647;DHT22;2336;47.822;7.564;2023-05-06T14:00:23;23.10;99.90
4647;DHT22;2336;47.822;7.564;2023-05-06T14:02:51;23.00;99.90
4647;DHT22;2336;47.822;7.564;2023-05-06T14:05:17;23.20;99.90
4647;DHT22;2336;47.822;7.564;2023-05-06T14:07:44;23.00;99.90
4647;DHT22;2336;47.822;7.564;2023-05-06T14:10:11;23.10;99.90
4647;DHT22;2336;47.822;7.564;2023-05-06T14:12:38;23.30;99.90
4647;DHT22;2336;47.822;7.564;2023-05-06T14:15:05;23.10;99.90
4647;DHT22;2336;47.822;7.564;2023-05-06T14:17:32;23.10;99.90
4647;DHT22;2336;47.822;7.564;2023-05-06T14:20:00;23.20;99.90
4647;DHT22;2336;47.822;7.564;2023-05-06T14:22:27;23.30;99.90
4647;DHT22;2336;47.822;7.564;2023-05-06T14:24:54;23.40;99.90
4647;DHT22;2336;47.822;7.564;2023-05-06T14:27:20;23.20;99.90
4647;DHT22;2336;47.822;7.564;2023-05-06T14:29:47;23.20;99.90
4647;DHT22;2336;47.822;7.564;2023-05-06T14:32:14;23.20;99.90
4647;DHT22;2336;47.822;7.564;2023-05-06T14:34:41;23.20;99.90
4647;DHT22;2336;47.822;7.564;2023-05-06T14:37:09;23.20;99.90
4647;DHT22;2336;47.822;7.564;2023-05-06T14:39:35;23.40;99.90
4647;DHT22;2336;47.822;7.564;2023-05-06T14:42:02;23.50;99.90
4647;DHT22;2336;47.822;7.564;2023-05-06T14:44:29;23.50;99.90
4647;DHT22;2336;47.822;7.564;2023-05-06T14:46:55;23.20;99.90
4647;DHT22;2336;47.822;7.564;2023-05-06T14:49:22;23.20;99.90
4647;DHT22;2336;47.822;7.564;2023-05-06T14:51:49;23.00;99.90
4647;DHT22;2336;47.822;7.564;2023-05-06T14:54:17;23.00;99.90
4647;DHT22;2336;47.822;7.564;2023-05-06T14:56:44;23.00;99.90
4647;DHT22;2336;47.822;7.564;2023-05-06T14:59:11;23.00;99.90
4647;DHT22;2336;47.822;7.564;2023-05-06T15:01:38;23.00;99.90
4647;DHT22;2336;47.822;7.564;2023-05-06T15:04:07;22.90;99.90
4647;DHT22;2336;47.822;7.564;2023-05-06T15:06:34;22.90;99.90
4647;DHT22;2336;47.822;7.564;2023-05-06T15:09:00;22.80;99.90
4647;DHT22;2336;47.822;7.564;2023-05-06T15:11:29;22.90;99.90
4647;DHT22;2336;47.822;7.564;2023-05-06T15:13:56;22.90;99.90
4647;DHT22;2336;47.822;7.564;2023-05-06T15:16:23;23.00;99.90
4647;DHT22;2336;47.822;7.564;2023-05-06T15:18:49;23.10;99.90
4647;DHT22;2336;47.822;7.564;2023-05-06T15:21:16;23.00;99.90
4647;DHT22;2336;47.822;7.564;2023-05-06T15:23:44;22.90;99.90
4647;DHT22;2336;47.822;7.564;2023-05-06T15:26:11;23.00;99.90
4647;DHT22;2336;47.822;7.564;2023-05-06T15:28:39;23.10;99.90
4647;DHT22;2336;47.822;7.564;2023-05-06T15:31:06;23.20;99.90
4647;DHT22;2336;47.822;7.564;2023-05-06T15:33:33;23.10;99.90
4647;DHT22;2336;47.822;7.564;2023-05-06T15:35:59;23.10;99.90
4647;DHT22;2336;47.822;7.564;2023-05-06T15:38:26;23.00;99.90
4647;DHT22;2336;47.822;7.564;2023-05-06T15:40:53;23.00;99.90
4647;DHT22;2336;47.822;7.564;2023-05-06T15:43:20;23.00;99.90
4647;DHT22;2336;47.822;7.564;2023-05-06T15:45:48;23.00;99.90
4647;DHT22;2336;47.822;7.564;2023-05-06T15:48:15;22.80;99.90
4647;DHT22;2336;47.822;7.564;2023-05-06T15:50:42;22.90;99.90
4647;DHT22;2336;47.822;7.564;2023-05-06T15:53:09;22.80;99.90
4647;DHT22;2336;47.822;7.564;2023-05-06T15:55:35;22.80;99.90
4647;DHT22;2336;47.822;7.564;2023-05-06T15:58:02;22.80;99.90
4647;DHT22;2336;47.822;7.564;2023-05-06T16:00:29;22.80;99.80
4647;DHT22;2336;47.822;7.564;2023-05-06T16:02:57;22.90;99.90
4647;DHT22;2336;47.822;7.564;2023-05-06T16:05:24;22.90;99.50
4647;DHT22;2336;47.822;7.564;2023-05-06T16:07:50;22.90;99.60
4647;DHT22;2336;47.822;7.564;2023-05-06T16:10:17;22.90;99.90